createdAt,value
2022-11-01T00:01:03.401Z,7.17
2022-11-01T00:05:15.731Z,7.60
2022-11-01T00:09:28.063Z,7.85
2022-11-01T00:13:40.732Z,7.80
2022-11-01T00:17:53.002Z,8.23
2022-11-01T00:22:05.318Z,8.49
2022-11-01T00:26:24.142Z,8.27
2022-11-01T00:30:42.291Z,8.15
2022-11-01T00:34:54.578Z,8.07
2022-11-01T00:39:08.369Z,7.96
2022-11-01T00:43:20.649Z,7.93
2022-11-01T00:47:32.910Z,7.89
2022-11-01T00:51:45.195Z,7.85
2022-11-01T00:56:05.726Z,7.85
2022-11-01T01:00:18.138Z,7.87
2022-11-01T01:04:30.426Z,7.75
2022-11-01T01:08:42.689Z,7.62
2022-11-01T01:12:54.983Z,7.64
2022-11-01T01:17:08.546Z,7.52
2022-11-01T01:21:20.914Z,7.47
2022-11-01T01:25:34.075Z,7.45
2022-11-01T01:29:46.379Z,7.42
2022-11-01T01:33:59.301Z,7.33
2022-11-01T01:38:15.547Z,7.24
2022-11-01T01:42:36.208Z,7.21
2022-11-01T01:46:48.460Z,7.21
2022-11-01T01:51:05.334Z,7.18
2022-11-01T01:55:22.344Z,7.15
2022-11-01T01:59:35.642Z,7.18
2022-11-01T02:03:48.440Z,7.23
2022-11-01T02:08:01.929Z,7.27
2022-11-01T02:12:15.167Z,7.28
2022-11-01T02:16:44.551Z,7.27
2022-11-01T02:21:24.594Z,7.20
2022-11-01T02:25:58.622Z,7.10
2022-11-01T02:30:19.129Z,7.11
2022-11-01T02:34:36.840Z,7.05
2022-11-01T02:39:00.037Z,7.04
2022-11-01T02:43:23.306Z,7.01
2022-11-01T02:47:36.718Z,7.06
2022-11-01T02:51:50.994Z,7.23
2022-11-01T02:56:03.304Z,7.49
2022-11-01T03:00:25.500Z,7.63
2022-11-01T03:04:38.046Z,7.32
2022-11-01T03:09:00.826Z,7.11
2022-11-01T03:13:19.011Z,6.95
2022-11-01T03:17:38.306Z,6.90
2022-11-01T03:21:59.717Z,6.97
2022-11-01T03:26:15.825Z,6.99
2022-11-01T03:30:32.342Z,6.97
2022-11-01T03:34:46.130Z,6.85
2022-11-01T03:39:10.403Z,6.81
2022-11-01T03:43:28.376Z,6.68
2022-11-01T03:47:40.693Z,6.62
2022-11-01T03:51:52.973Z,6.70
2022-11-01T03:56:05.555Z,6.67
2022-11-01T04:00:23.228Z,6.58
2022-11-01T04:04:35.701Z,6.62
2022-11-01T04:08:47.968Z,6.53
2022-11-01T04:13:01.722Z,6.48
2022-11-01T04:17:32.568Z,6.47
2022-11-01T04:21:54.829Z,6.45
2022-11-01T04:26:08.507Z,6.32
2022-11-01T04:30:20.761Z,6.30
2022-11-01T04:34:45.341Z,6.23
2022-11-01T04:38:58.734Z,6.27
2022-11-01T04:43:11.940Z,6.24
2022-11-01T04:47:24.212Z,6.25
2022-11-01T04:51:36.514Z,6.20
2022-11-01T04:55:48.793Z,6.13
2022-11-01T05:00:01.057Z,6.13
2022-11-01T05:04:13.305Z,6.14
2022-11-01T05:08:25.562Z,6.17
2022-11-01T05:12:38.268Z,6.14
2022-11-01T05:16:50.531Z,6.05
2022-11-01T05:21:03.044Z,6.10
2022-11-01T05:25:15.980Z,6.14
2022-11-01T05:29:32.838Z,6.20
2022-11-01T05:33:45.623Z,6.26
2022-11-01T05:37:58.542Z,6.27
2022-11-01T05:42:13.897Z,6.33
2022-11-01T05:46:26.144Z,6.36
2022-11-01T05:50:38.486Z,6.45
2022-11-01T05:54:50.744Z,6.58
2022-11-01T05:59:03.110Z,6.63
2022-11-01T06:03:15.433Z,6.64
2022-11-01T06:07:28.397Z,6.70
2022-11-01T06:11:45.663Z,6.71
2022-11-01T06:16:01.996Z,6.80
2022-11-01T06:20:14.474Z,6.79
2022-11-01T06:24:26.782Z,6.84
2022-11-01T06:28:39.072Z,6.78
2022-11-01T06:32:51.486Z,6.90
2022-11-01T06:37:03.768Z,7.10
2022-11-01T06:41:16.600Z,7.09
2022-11-01T06:45:38.300Z,7.20
2022-11-01T06:49:50.589Z,7.32
2022-11-01T06:54:03.694Z,7.48
2022-11-01T06:58:15.986Z,7.77
2022-11-01T07:02:29.964Z,8.20
2022-11-01T07:06:47.084Z,8.63
2022-11-01T07:10:59.666Z,9.02
2022-11-01T07:15:12.337Z,9.40
2022-11-01T07:19:24.598Z,9.60
2022-11-01T07:23:37.066Z,9.69
2022-11-01T07:27:49.334Z,9.81
2022-11-01T07:32:01.839Z,9.88
2022-11-01T07:36:14.563Z,9.95
2022-11-01T07:40:30.714Z,9.97
2022-11-01T07:44:46.493Z,10.05
2022-11-01T07:49:01.213Z,10.24
2022-11-01T07:53:19.529Z,10.50
2022-11-01T07:57:31.841Z,10.81
2022-11-01T08:01:44.142Z,11.13
2022-11-01T08:05:56.746Z,11.76
2022-11-01T08:10:11.679Z,12.56
2022-11-01T08:14:23.948Z,13.41
2022-11-01T08:18:36.227Z,14.21
2022-11-01T08:22:48.664Z,14.88
2022-11-01T08:27:01.002Z,15.17
2022-11-01T08:31:13.350Z,15.17
2022-11-01T08:35:25.809Z,15.25
2022-11-01T08:39:38.325Z,15.20
2022-11-01T08:43:50.593Z,15.25
2022-11-01T08:48:05.880Z,15.41
2022-11-01T08:52:18.162Z,15.68
2022-11-01T08:56:32.492Z,15.78
2022-11-01T09:00:44.762Z,15.69
2022-11-01T09:04:58.170Z,16.20
2022-11-01T09:09:11.592Z,16.51
2022-11-01T09:13:24.307Z,16.85
2022-11-01T09:17:36.702Z,16.63
2022-11-01T09:21:49.420Z,16.77
2022-11-01T09:26:10.181Z,16.92
2022-11-01T09:30:22.504Z,16.67
2022-11-01T09:34:35.667Z,16.61
2022-11-01T09:38:49.190Z,16.60
2022-11-01T09:43:02.138Z,16.65
2022-11-01T09:47:19.264Z,16.59
2022-11-01T09:51:31.678Z,16.61
2022-11-01T09:56:13.667Z,16.76
2022-11-01T10:00:30.852Z,16.85
2022-11-01T10:05:06.160Z,17.25
2022-11-01T10:09:49.447Z,17.64
2022-11-01T10:14:50.002Z,17.97
2022-11-01T10:19:05.377Z,17.89
2022-11-01T10:23:22.123Z,17.75
2022-11-01T10:27:56.173Z,17.85
2022-11-01T10:32:26.828Z,17.99
2022-11-01T10:36:41.615Z,17.72
2022-11-01T10:41:01.138Z,17.73
2022-11-01T10:45:18.426Z,18.04
2022-11-01T10:50:05.319Z,18.18
2022-11-01T10:54:19.470Z,18.34
2022-11-01T10:59:02.479Z,18.35
2022-11-01T11:03:23.228Z,18.94
2022-11-01T11:07:35.553Z,18.24
2022-11-01T11:11:49.561Z,19.04
2022-11-01T11:16:06.250Z,19.28
2022-11-01T11:20:31.205Z,19.45
2022-11-01T11:24:45.425Z,18.86
2022-11-01T11:28:58.246Z,19.22
2022-11-01T11:33:17.566Z,19.68
2022-11-01T11:37:33.129Z,19.75
2022-11-01T11:41:47.954Z,19.73
2022-11-01T11:46:19.900Z,19.23
2022-11-01T11:50:34.184Z,19.33
2022-11-01T11:54:47.665Z,19.87
2022-11-01T11:59:08.546Z,19.60
2022-11-01T12:07:45.372Z,19.31
2022-11-01T12:12:06.068Z,19.16
2022-11-01T12:16:25.486Z,19.04
2022-11-01T12:20:39.546Z,18.93
2022-11-01T12:24:54.205Z,18.59
2022-11-01T12:29:36.773Z,18.66
2022-11-01T12:34:00.142Z,18.60
2022-11-01T12:38:28.737Z,18.57
2022-11-01T12:42:50.595Z,18.35
2022-11-01T12:47:39.556Z,18.42
2022-11-01T12:51:58.072Z,18.07
2022-11-01T12:56:11.099Z,17.89
2022-11-01T13:00:27.644Z,17.83
2022-11-01T13:04:57.845Z,17.84
2022-11-01T13:09:22.362Z,17.85
2022-11-01T13:13:42.047Z,18.05
2022-11-01T13:17:59.890Z,17.91
2022-11-01T13:23:01.141Z,17.82
2022-11-01T13:27:16.546Z,17.79
2022-11-01T13:31:54.045Z,17.57
2022-11-01T13:36:58.961Z,17.29
2022-11-01T13:41:34.706Z,17.32
2022-11-01T13:46:26.156Z,17.36
2022-11-01T13:50:58.847Z,17.28
2022-11-01T13:55:24.073Z,17.41
2022-11-01T13:59:40.338Z,17.46
2022-11-01T14:04:08.530Z,17.26
2022-11-01T14:08:29.247Z,17.30
2022-11-01T14:12:48.296Z,17.02
2022-11-01T14:17:19.482Z,16.94
2022-11-01T14:21:40.997Z,16.86
2022-11-01T14:26:19.165Z,16.96
2022-11-01T14:30:35.739Z,17.05
2022-11-01T14:34:58.154Z,17.01
2022-11-01T14:39:20.729Z,17.08
2022-11-01T14:43:34.562Z,16.83
2022-11-01T14:47:48.644Z,16.64
2022-11-01T14:52:04.051Z,16.53
2022-11-01T14:56:24.170Z,16.44
2022-11-01T15:00:36.840Z,16.30
2022-11-01T15:04:49.914Z,16.19
2022-11-01T15:09:20.955Z,16.14
2022-11-01T15:13:39.198Z,16.21
2022-11-01T15:17:55.194Z,16.04
2022-11-01T15:22:07.520Z,15.93
2022-11-01T15:26:22.385Z,15.82
2022-11-01T15:30:35.522Z,15.61
2022-11-01T15:34:53.590Z,15.51
2022-11-01T15:39:24.608Z,15.36
2022-11-01T15:43:36.923Z,15.20
2022-11-01T15:47:49.279Z,15.07
2022-11-01T15:52:23.758Z,14.92
2022-11-01T15:56:50.956Z,14.78
2022-11-01T16:01:11.254Z,14.66
2022-11-01T16:05:30.293Z,14.60
2022-11-01T16:09:49.702Z,14.55
2022-11-01T16:14:21.727Z,14.53
2022-11-01T16:18:35.928Z,14.43
2022-11-01T16:22:48.574Z,14.32
2022-11-01T16:27:05.122Z,14.26
2022-11-01T16:31:26.781Z,14.16
2022-11-01T16:35:39.359Z,14.07
2022-11-01T16:39:53.292Z,14.03
2022-11-01T16:44:16.690Z,13.99
2022-11-01T16:48:36.558Z,13.96
2022-11-01T16:52:49.469Z,13.91
2022-11-01T16:57:03.700Z,13.89
2022-11-01T17:01:26.281Z,13.86
2022-11-01T17:05:41.243Z,13.81
2022-11-01T17:09:54.281Z,13.79
2022-11-01T17:14:07.057Z,13.81
2022-11-01T17:18:29.276Z,13.81
2022-11-01T17:22:42.685Z,13.80
2022-11-01T17:26:59.738Z,13.83
2022-11-01T17:31:22.045Z,13.78
2022-11-01T17:35:35.362Z,13.70
2022-11-01T17:39:47.659Z,13.71
2022-11-01T17:43:59.991Z,13.62
2022-11-01T17:48:19.840Z,13.61
2022-11-01T17:52:32.172Z,13.66
2022-11-01T17:56:44.527Z,13.62
2022-11-01T18:00:57.902Z,13.59
2022-11-01T18:20:21.306Z,13.49
2022-11-01T18:24:39.278Z,13.47
2022-11-01T18:28:56.066Z,13.49
2022-11-01T18:33:20.209Z,13.49
2022-11-01T18:37:49.797Z,13.39
2022-11-01T18:42:13.325Z,13.32
2022-11-01T18:46:32.040Z,13.27
2022-11-01T18:50:44.726Z,13.18
2022-11-01T18:55:13.002Z,13.15
2022-11-01T18:59:34.897Z,13.27
2022-11-01T19:03:54.932Z,13.30
2022-11-01T19:08:24.802Z,13.25
2022-11-01T19:12:41.416Z,13.21
2022-11-01T19:16:54.927Z,13.17
2022-11-01T19:21:16.979Z,13.11
2022-11-01T19:25:36.099Z,13.02
2022-11-01T19:29:53.977Z,12.81
2022-11-01T19:34:17.232Z,12.57
2022-11-01T19:38:29.631Z,12.30
2022-11-01T19:42:41.905Z,12.06
2022-11-01T19:47:26.241Z,11.91
2022-11-01T19:51:38.530Z,11.75
2022-11-01T19:56:09.579Z,11.74
2022-11-01T20:00:32.039Z,11.57
2022-11-01T20:04:44.345Z,11.40
2022-11-01T20:09:04.172Z,11.30
2022-11-01T20:13:16.469Z,11.15
2022-11-01T20:17:29.251Z,11.10
2022-11-01T20:21:41.632Z,10.99
2022-11-01T20:25:53.944Z,10.80
2022-11-01T20:30:09.339Z,10.64
2022-11-01T20:34:21.728Z,10.55
2022-11-01T20:38:34.067Z,10.45
2022-11-01T20:42:46.362Z,10.37
2022-11-01T20:46:58.635Z,10.37
2022-11-01T20:51:11.003Z,10.27
2022-11-01T20:55:23.417Z,10.25
2022-11-01T20:59:35.957Z,10.16
2022-11-01T21:03:48.268Z,10.09
2022-11-01T21:08:06.443Z,10.00
2022-11-01T21:12:48.336Z,9.86
2022-11-01T21:17:02.325Z,9.82
2022-11-01T21:21:14.540Z,9.77
2022-11-01T21:25:27.343Z,9.68
2022-11-01T21:29:46.269Z,9.60
2022-11-01T21:34:02.593Z,9.49
2022-11-01T21:38:38.322Z,9.45
2022-11-01T21:42:50.669Z,9.39
2022-11-01T21:51:35.860Z,9.25
2022-11-01T21:55:48.278Z,9.23
2022-11-01T22:00:00.803Z,9.21
2022-11-01T22:04:14.625Z,9.19
2022-11-01T22:08:26.975Z,9.07
2022-11-01T22:12:39.294Z,9.00
2022-11-01T22:16:52.081Z,8.97
2022-11-01T22:21:04.429Z,8.94
2022-11-01T22:25:16.873Z,8.87
2022-11-01T22:29:29.432Z,8.81
2022-11-01T22:33:53.854Z,8.78
2022-11-01T22:38:21.066Z,8.75
2022-11-01T22:42:33.358Z,8.63
2022-11-01T22:46:47.576Z,8.54
2022-11-01T22:51:03.788Z,8.48
2022-11-01T22:55:25.675Z,8.42
2022-11-01T22:59:52.274Z,8.39
2022-11-01T23:04:17.915Z,8.42
2022-11-01T23:08:33.634Z,8.36
2022-11-01T23:13:05.176Z,8.35
2022-11-01T23:17:33.692Z,8.36
2022-11-01T23:21:45.942Z,8.35
2022-11-01T23:26:02.665Z,8.33
2022-11-01T23:30:15.056Z,8.27
2022-11-01T23:34:34.818Z,8.24
2022-11-01T23:38:51.808Z,8.32
2022-11-01T23:43:04.416Z,8.28
2022-11-01T23:47:34.728Z,8.30
2022-11-01T23:51:47.607Z,8.24
2022-11-01T23:56:00.977Z,8.16
